New Underwood, South Dakota
Current Conditions -  °F | °C
As of 4:52 PM on Thursday 18 Dec 2014 (Local Time) from KRAP Reporting Station
Clear Clear  
Wind Chill: 25°   Ceiling: Unl
Heat Index: 31°   Visibility: 10mi
Dew Point: 25°   Wind: 6mph
Humidity: 79%   Direction: 40°NE
Pressure: 29.99"   Gusts: NA
Location:  44.09°N, 102.84°W
Report Text: KRAP 182352Z 04005KT 10SM CLR M01/M04 A2999 RMK AO2 SLP194 T10061039 10061 21017 53009
Loading
Personal Weather Stations






























Interactive Weather Map New forecast layout! Learn more

10-Day Weather Forecast

Advertisements
Track Severe Weather on mobile